Flight Track Log - Related Links

Times and Time Zones

All times are in EDT time to prevent confusion due to time zone crossing. See the AAY829 flight status page for this flight to view local times or setup timezone preferences in your user account.

Time Position Orientation Groundspeed Altitude Reporting Facility
EDT Latitude Longitude Course Direction KTS MPH feet Rate Location/Type
Fri 02:21:38 PM 34.9361 -82.0397 173° South 289 333 8,200  Level Atlanta Center
Fri 02:22:38 PM 34.8628 -82.0111 162° South 281 323 10,000 1,200 Climbing Atlanta Center
Fri 02:23:38 PM 34.7817 -82.0308 191° South 254 292 10,600 1,250 Climbing Atlanta Center
Fri 02:24:38 PM 34.6925 -82.0606 195° South 293 337 12,500 2,333 Climbing Atlanta Center
Fri 02:25:00 PM 34.2790 -82.2632 180° South  Level Estimated
Fri 02:26:00 PM 34.1762 -82.2706 173° South  Level Estimated
Fri 02:26:38 PM 34.4950 -82.1081 191° South 356 410 17,600  Level Atlanta Center
Fri 02:27:38 PM 34.3953 -82.1356 193° South 370 426 19,300 1,700 Climbing Atlanta Center
Fri 02:28:38 PM 34.2869 -82.1608 191° South 383 441 21,000 1,350 Climbing Atlanta Center
Fri 02:29:38 PM 34.1811 -82.1856 191° South 393 452 22,000 850 Climbing Atlanta Center
Fri 02:30:38 PM 34.0725 -82.1881 181° South 393 452 22,700 500 Climbing Atlanta Center
Fri 02:31:38 PM 33.9617 -82.1803 177° South 388 447 23,000 150 Climbing Atlanta Center
Fri 02:32:38 PM 33.8531 -82.1728 177° South 388 447 23,000  Level Atlanta Center
Fri 02:33:38 PM 33.7403 -82.1653 177° South 398 458 23,000 550 Level Atlanta Center
Fri 02:34:38 PM 33.6297 -82.1728 183° South 398 458 24,100 1,250 Climbing Atlanta Center
Fri 02:35:38 PM 33.5194 -82.1925 188° South 403 464 25,500 950 Climbing Atlanta Center
Fri 02:36:38 PM 33.4069 -82.2097 187° South 409 471 26,000 400 Climbing Atlanta Center
Fri 02:37:38 PM 33.2925 -82.2272 187° South 409 471 26,300 850 Climbing Atlanta Center
Fri 02:38:38 PM 33.1781 -82.2469 188° South 409 471 27,700 1,350 Climbing Atlanta Center
Fri 02:39:38 PM 33.0614 -82.2667 188° South 419 482 29,000 1,300 Climbing Atlanta Center
Fri 02:40:38 PM 32.9406 -82.2864 188° South 431 496 30,300 1,400 Climbing Atlanta Center
Fri 02:41:38 PM 32.8219 -82.3036 187° South 431 496 31,800 1,550 Climbing Atlanta Center
Fri 02:42:38 PM 32.7053 -82.3231 188° South 431 496 33,400 1,500 Climbing Atlanta Center
Fri 02:43:38 PM 32.5886 -82.3428 188° South 431 496 34,800 1,300 Climbing Atlanta Center
Fri 02:44:38 PM 32.4783 -82.3744 194° South 421 484 36,000 371 Climbing Atlanta Center
Fri 02:46:52 PM 32.2494 -82.4947 204° Southwest 414 476 36,000  Level Jacksonville Center
Fri 02:47:52 PM 32.1431 -82.5467 202° Southwest 414 476 36,000  Level Jacksonville Center
Fri 02:48:52 PM 32.0347 -82.6008 203° Southwest 414 476 36,000  Level Jacksonville Center
Fri 02:49:52 PM 31.9261 -82.6478 200° South 414 476 36,000  Level Jacksonville Center
Fri 02:50:52 PM 31.8114 -82.6556 183° South 414 476 36,000  Level Jacksonville Center
Fri 02:51:52 PM 31.6903 -82.6558 180° South 420 483 36,000  Level Jacksonville Center
Fri 02:52:52 PM 31.5692 -82.6367 172° South 425 489 36,000  Level Jacksonville Center
Fri 02:53:52 PM 31.4500 -82.6197 173° South 437 503 36,000 -50 Level Jacksonville Center
Fri 02:54:52 PM 31.3372 -82.6081 175° South 445 512 35,900  Descending Jacksonville Center
Fri 02:55:52 PM 31.2161 -82.5914 173° South 445 512 36,000 50 Climbing Jacksonville Center
Fri 02:56:52 PM 31.0950 -82.5747 173° South 445 512 36,000  Level Jacksonville Center
Fri 02:57:52 PM 30.9739 -82.5558 172° South 445 512 36,000  Level Jacksonville Center
Fri 02:58:52 PM 30.8528 -82.5392 173° South 445 512 36,000 -50 Level Jacksonville Center
Fri 02:59:52 PM 30.7336 -82.5228 173° South 445 512 35,900 -50 Descending Jacksonville Center
Fri 03:00:52 PM 30.6125 -82.5039 172° South 445 512 35,900  Level Jacksonville Center
Fri 03:01:52 PM 30.4914 -82.4850 172° South 445 512 35,900 50 Level Jacksonville Center
Fri 03:02:52 PM 30.3703 -82.4714 174° South 445 512 36,000 50 Climbing Jacksonville Center
Fri 03:03:52 PM 30.2492 -82.4525 172° South 445 512 36,000 -50 Level Jacksonville Center
Fri 03:04:52 PM 30.1278 -82.4364 173° South 445 512 35,900 -500 Descending Jacksonville Center
Fri 03:05:52 PM 30.0047 -82.4153 172° South 445 512 35,000 -1,550 Descending Jacksonville Center
Fri 03:06:52 PM 29.8836 -82.3967 172° South 445 512 32,800 -2,250 Descending Jacksonville Center
Fri 03:07:52 PM 29.7622 -82.3806 173° South 445 512 30,500 -2,300 Descending Jacksonville Center
Fri 03:08:52 PM 29.6475 -82.3644 173° South 438 504 28,200 -2,000 Descending Jacksonville Center
Fri 03:09:52 PM 29.5306 -82.3483 173° South 433 498 26,500 -1,650 Descending Jacksonville Center
Fri 03:10:52 PM 29.4239 -82.3394 176° South 414 476 24,900 -1,650 Descending Jacksonville Center
Fri 03:11:52 PM 29.3133 -82.3233 173° South 403 464 23,200 -2,200 Descending Jacksonville Center
Fri 03:12:52 PM 29.2025 -82.3122 175° South 403 464 20,500 -2,400 Descending Jacksonville Center
Fri 03:13:52 PM 29.0981 -82.2986 174° South 398 458 18,400 -2,000 Descending Jacksonville Center
Fri 03:14:52 PM 28.9936 -82.2872 175° South 386 444 16,500 -1,800 Descending Jacksonville Center
Fri 03:15:52 PM 28.8872 -82.2761 175° South 368 423 14,800 -1,155 Descending Jacksonville Center
Fri 03:17:59 PM 28.7156 -82.2569 174° South 311 358 12,900 -984 Descending Miami Center
Fri 03:19:01 PM 28.6167 -82.2572 180° South 298 343 11,700 -1,113 Descending Miami Center
Fri 03:20:03 PM 28.5744 -82.3314 237° Southwest 302 348 10,600 -823 Descending Miami Center
Fri 03:21:05 PM 28.5503 -82.4206 253° West 296 341 10,000 -224 Descending Miami Center
Fri 03:22:17 PM 28.4833 -82.5167 232° Southwest 289 333 10,100 42 Climbing Tampa TRACON
Fri 03:23:29 PM 28.4333 -82.6000 236° Southwest 289 333 10,100  Level Tampa TRACON
Fri 03:24:30 PM 28.4000 -82.6833 246° West 291 335 10,100 -58 Level Tampa TRACON
Fri 03:25:12 PM 28.3636 -82.7375 233° Southwest 290 334 10,000 -353 Descending Miami Center
Fri 03:26:12 PM 28.3000 -82.8000 221° Southwest 288 331 9,500 -1,050 Descending Tampa TRACON
Fri 03:27:12 PM 28.2167 -82.7833 170° South 284 327 7,900 -1,579 Descending Tampa TRACON
Fri 03:28:06 PM 28.1500 -82.7833 180° South 281 323 6,500 -1,636 Descending Tampa TRACON
Fri 03:29:24 PM 28.0500 -82.7667 172° South 274 315 4,300 -1,571 Descending Tampa TRACON
Fri 03:30:12 PM 28.0000 -82.7667 180° South 266 306 3,200 -889 Descending Tampa TRACON
Fri 03:31:12 PM 27.9333 -82.7667 180° South 228 262 2,700 -316 Descending Tampa TRACON
Fri 03:32:06 PM 27.8833 -82.7667 180° South 192 221 2,600 -524 Descending Tampa TRACON
Fri 03:33:18 PM 27.8333 -82.7333 149° Southeast 187 215 1,600 -545 Descending Tampa TRACON
Fri 03:34:18 PM 27.8333 -82.6833 90° East 169 194 1,400 -600 Descending Tampa TRACON
Fri 03:35:18 PM 27.8833 -82.6833 360° North 129 148 400 -1,000 Descending Tampa TRACON
Fri 03:38:00 PM 27.9000 -82.6833 310° West  Level FlightAware Approximate

Login

Don't have an account? Register now (free) for customized features, flight alerts, and more!